Time;durP1;ratioP1;P1;durP2;ratioP2;P2;SDS_P1;SDS_P2;PMS_P1;PMS_P2;Temp;Humidity;BMP_temperature;BMP_pressure;BME280_temperature;BME280_humidity;BME280_pressure;Samples;Min_cycle;Max_cycle;Signal;HPM_P1;HPM_P2
2021/10/04 00:00:07;;;;;;;2.00;0.20;;;12.00;99.90;;;;;;5012219;28;20026;-77
2021/10/04 00:02:33;;;;;;;4.50;0.10;;;12.00;99.90;;;;;;5014618;28;20061;-78
2021/10/04 00:04:59;;;;;;;1.75;0.00;;;12.00;99.90;;;;;;5012827;28;20497;-78
2021/10/04 00:07:24;;;;;;;8.68;0.63;;;11.90;99.90;;;;;;5012675;28;20026;-78
2021/10/04 00:09:50;;;;;;;4.45;0.25;;;12.00;99.90;;;;;;5013286;28;20044;-78
2021/10/04 00:12:16;;;;;;;1.45;0.00;;;12.00;99.90;;;;;;5012729;28;20044;-78
2021/10/04 00:14:42;;;;;;;3.88;0.00;;;11.90;99.90;;;;;;5014006;28;20026;-78
2021/10/04 00:17:07;;;;;;;1.95;0.50;;;12.00;99.90;;;;;;5013700;28;20101;-78
2021/10/04 00:19:33;;;;;;;5.97;0.20;;;11.90;99.90;;;;;;5013820;28;20105;-77
2021/10/04 00:21:59;;;;;;;2.03;0.45;;;11.90;99.90;;;;;;5012498;28;20022;-77
2021/10/04 00:24:25;;;;;;;1.23;0.00;;;11.90;99.90;;;;;;5012443;28;20022;-77
2021/10/04 00:26:51;;;;;;;2.20;0.00;;;11.90;99.90;;;;;;5013631;28;20142;-77
2021/10/04 00:29:19;;;;;;;4.28;0.75;;;11.90;99.90;;;;;;5013566;28;20022;-77
2021/10/04 00:31:45;;;;;;;2.13;0.00;;;11.90;99.90;;;;;;5013599;28;20386;-77
2021/10/04 00:34:10;;;;;;;3.38;0.00;;;12.00;99.90;;;;;;5012468;28;20026;-78
2021/10/04 00:36:36;;;;;;;0.17;0.00;;;11.90;99.90;;;;;;5013545;28;20030;-78
2021/10/04 00:39:03;;;;;;;4.47;0.45;;;11.90;99.90;;;;;;5012276;28;20108;-78
2021/10/04 00:41:29;;;;;;;3.00;0.00;;;12.00;99.90;;;;;;5012111;28;20025;-78
2021/10/04 00:43:56;;;;;;;2.00;0.00;;;12.00;99.90;;;;;;5012234;28;20106;-77
2021/10/04 00:46:22;;;;;;;0.65;0.00;;;12.00;99.90;;;;;;5013570;28;20090;-78
2021/10/04 00:48:48;;;;;;;5.75;0.00;;;12.00;99.90;;;;;;5012201;28;20040;-77
2021/10/04 00:51:15;;;;;;;3.33;0.05;;;12.10;99.90;;;;;;5013822;28;20026;-77
2021/10/04 00:53:42;;;;;;;1.50;0.00;;;12.10;99.90;;;;;;5012052;28;20375;-78
2021/10/04 00:56:07;;;;;;;0.30;0.00;;;12.10;99.90;;;;;;5012217;28;20536;-77
2021/10/04 00:58:33;;;;;;;1.88;0.00;;;12.10;99.90;;;;;;5011970;28;20112;-78
2021/10/04 01:00:59;;;;;;;0.22;0.00;;;12.00;99.90;;;;;;5013455;28;20430;-77
2021/10/04 01:03:24;;;;;;;3.25;0.20;;;12.00;99.90;;;;;;5013544;28;20022;-77
2021/10/04 01:05:50;;;;;;;1.67;0.17;;;12.10;99.90;;;;;;5012142;28;20127;-77
2021/10/04 01:08:15;;;;;;;0.17;0.00;;;12.00;99.90;;;;;;5011924;28;20117;-76
2021/10/04 01:10:41;;;;;;;2.05;0.00;;;12.00;99.90;;;;;;5013303;28;20022;-77
2021/10/04 01:13:07;;;;;;;2.35;0.20;;;12.00;99.90;;;;;;5015484;28;20025;-77
2021/10/04 01:15:32;;;;;;;1.60;0.00;;;11.90;99.90;;;;;;5015872;28;20501;-77
2021/10/04 01:17:58;;;;;;;1.45;0.00;;;11.90;99.90;;;;;;5017227;28;20022;-77
2021/10/04 01:20:26;;;;;;;1.90;0.08;;;11.90;99.90;;;;;;5015636;28;20026;-77
2021/10/04 01:22:52;;;;;;;3.13;0.52;;;11.90;99.90;;;;;;5016841;28;20057;-77
2021/10/04 01:25:19;;;;;;;1.17;0.00;;;11.90;99.90;;;;;;5015591;28;20033;-77
2021/10/04 01:27:46;;;;;;;2.47;0.05;;;12.10;99.90;;;;;;5012395;28;20049;-77
2021/10/04 01:30:14;;;;;;;1.48;0.05;;;11.80;99.90;;;;;;4997796;28;20022;-78
2021/10/04 01:32:40;;;;;;;0.77;0.00;;;11.80;99.90;;;;;;4997306;28;20030;-78
2021/10/04 01:35:07;;;;;;;1.95;0.00;;;11.90;99.90;;;;;;4997289;28;20026;-78
2021/10/04 01:37:33;;;;;;;0.45;0.00;;;11.80;99.90;;;;;;4997007;28;20101;-77
2021/10/04 01:39:58;;;;;;;0.80;0.00;;;11.80;99.90;;;;;;4997141;28;20110;-77
2021/10/04 01:42:24;;;;;;;5.03;0.00;;;11.80;99.90;;;;;;4995761;28;20033;-78
2021/10/04 01:44:50;;;;;;;1.95;0.00;;;11.80;99.90;;;;;;4995751;28;20023;-77
2021/10/04 01:47:15;;;;;;;1.25;0.70;;;11.90;99.90;;;;;;5009060;28;20018;-78
2021/10/04 01:49:43;;;;;;;3.28;0.00;;;11.90;99.90;;;;;;5015247;28;20517;-77
2021/10/04 01:52:13;;;;;;;1.33;0.00;;;11.90;99.90;;;;;;5015379;28;20033;-77
2021/10/04 01:54:40;;;;;;;1.08;0.25;;;11.90;99.90;;;;;;5015904;28;20037;-78
2021/10/04 01:57:06;;;;;;;1.00;0.10;;;11.80;99.90;;;;;;5015011;28;20490;-78
2021/10/04 01:59:32;;;;;;;4.72;0.00;;;11.80;99.90;;;;;;5017120;28;20025;-78
2021/10/04 02:01:57;;;;;;;1.60;0.00;;;11.80;99.90;;;;;;5020658;28;20018;-78
2021/10/04 02:04:23;;;;;;;3.80;0.52;;;11.80;99.90;;;;;;5019231;28;20026;-77
2021/10/04 02:06:51;;;;;;;5.90;0.52;;;11.80;99.90;;;;;;5020485;28;20394;-76
2021/10/04 02:09:20;;;;;;;11.48;0.98;;;11.80;99.90;;;;;;5020044;28;20048;-77
2021/10/04 02:11:46;;;;;;;1.40;0.00;;;11.80;99.90;;;;;;5018726;28;20022;-76
2021/10/04 02:14:13;;;;;;;2.30;0.00;;;11.80;99.90;;;;;;5020117;28;20037;-76
2021/10/04 02:16:39;;;;;;;2.55;0.22;;;11.70;99.90;;;;;;5018022;28;20026;-76
2021/10/04 02:19:06;;;;;;;2.92;0.40;;;11.70;99.90;;;;;;5019632;28;20025;-77
2021/10/04 02:21:31;;;;;;;1.70;0.00;;;11.60;99.90;;;;;;5020015;28;20463;-77
2021/10/04 02:23:57;;;;;;;1.65;0.00;;;11.60;99.90;;;;;;5021319;28;20024;-77
2021/10/04 02:26:23;;;;;;;2.60;0.10;;;11.60;99.90;;;;;;5023942;28;20022;-78
2021/10/04 02:28:48;;;;;;;3.00;0.03;;;11.50;99.90;;;;;;5022839;28;20014;-79
2021/10/04 02:31:14;;;;;;;2.50;0.10;;;11.50;99.90;;;;;;5021093;28;20014;-78
2021/10/04 02:33:40;;;;;;;0.45;0.00;;;11.50;99.90;;;;;;5019310;28;20095;-78
2021/10/04 02:36:06;;;;;;;2.38;0.00;;;11.40;99.90;;;;;;5022581;28;20033;-78
2021/10/04 02:38:32;;;;;;;1.98;0.00;;;11.40;99.90;;;;;;5021788;28;20424;-78
2021/10/04 02:40:57;;;;;;;2.38;0.00;;;11.40;99.90;;;;;;5021123;28;20026;-78
2021/10/04 02:43:23;;;;;;;3.53;0.30;;;11.40;99.90;;;;;;5023405;28;20034;-79
2021/10/04 02:45:51;;;;;;;3.17;0.00;;;11.40;99.90;;;;;;5023746;28;20450;-79
2021/10/04 02:48:17;;;;;;;2.55;0.00;;;9.80;99.90;;;;;;5026280;28;20022;-78
2021/10/04 02:50:43;;;;;;;1.00;0.00;;;11.30;99.90;;;;;;5027557;28;20026;-79
2021/10/04 02:53:09;;;;;;;3.10;0.00;;;11.20;99.90;;;;;;5023695;28;20021;-78
2021/10/04 02:55:34;;;;;;;1.27;0.00;;;11.20;99.90;;;;;;5018187;28;20399;-79
2021/10/04 02:58:00;;;;;;;0.55;0.00;;;11.10;99.90;;;;;;5022860;28;20018;-78
2021/10/04 03:00:26;;;;;;;3.85;0.47;;;11.10;99.90;;;;;;5019400;28;20026;-78
2021/10/04 03:02:52;;;;;;;3.58;0.68;;;11.10;99.90;;;;;;5017924;28;20026;-78
2021/10/04 03:05:18;;;;;;;1.38;0.00;;;11.00;99.90;;;;;;5017683;28;20017;-78
2021/10/04 03:07:43;;;;;;;1.80;0.00;;;11.00;99.90;;;;;;5019120;28;20021;-78
2021/10/04 03:10:09;;;;;;;1.48;0.05;;;10.90;99.90;;;;;;5017157;28;20025;-77
2021/10/04 03:12:35;;;;;;;3.80;0.60;;;10.90;99.90;;;;;;5017593;28;20395;-77
2021/10/04 03:15:02;;;;;;;4.90;0.20;;;10.80;99.90;;;;;;5019074;28;20026;-77
2021/10/04 03:17:27;;;;;;;4.20;0.20;;;10.80;99.90;;;;;;5019257;28;20026;-77
2021/10/04 03:19:53;;;;;;;3.95;0.00;;;10.80;99.90;;;;;;5017710;28;20025;-75
2021/10/04 03:22:18;;;;;;;0.40;0.00;;;10.70;99.90;;;;;;5017486;28;20513;-75
2021/10/04 03:24:44;;;;;;;1.85;0.00;;;10.70;99.90;;;;;;5019205;28;20355;-76
2021/10/04 03:27:10;;;;;;;0.45;0.22;;;10.70;99.90;;;;;;5018771;28;20101;-76
2021/10/04 03:29:35;;;;;;;1.98;0.00;;;10.70;99.90;;;;;;5018804;28;20034;-78
2021/10/04 03:32:01;;;;;;;1.45;0.08;;;10.70;99.90;;;;;;5017649;28;20533;-79
2021/10/04 03:34:27;;;;;;;0.88;0.00;;;10.70;99.90;;;;;;5016768;28;20429;-78
2021/10/04 03:36:56;;;;;;;4.28;0.38;;;10.60;99.90;;;;;;5015857;28;20021;-78
2021/10/04 03:39:22;;;;;;;0.75;0.00;;;10.60;99.90;;;;;;5013150;28;20037;-78
2021/10/04 03:41:48;;;;;;;3.35;0.35;;;10.50;99.90;;;;;;5013171;28;20030;-78
2021/10/04 03:44:13;;;;;;;2.33;0.13;;;10.50;99.90;;;;;;5013360;28;20022;-78
2021/10/04 03:46:42;;;;;;;4.85;0.00;;;10.50;99.90;;;;;;5012910;28;20022;-78
2021/10/04 03:49:07;;;;;;;7.50;0.00;;;10.50;99.90;;;;;;5014274;28;20041;-78
2021/10/04 03:51:33;;;;;;;1.45;0.00;;;10.50;99.90;;;;;;5014326;28;20471;-78
2021/10/04 03:53:58;;;;;;;1.17;0.30;;;10.50;99.90;;;;;;5014393;28;20117;-78
2021/10/04 03:56:24;;;;;;;0.65;0.00;;;10.50;99.90;;;;;;5012913;28;20077;-78
2021/10/04 03:58:50;;;;;;;2.38;0.47;;;10.50;99.90;;;;;;5014115;28;20022;-77
2021/10/04 04:01:16;;;;;;;2.28;0.00;;;10.50;99.90;;;;;;5014021;28;20453;-77
2021/10/04 04:03:41;;;;;;;0.55;0.10;;;10.40;99.90;;;;;;5013769;28;20121;-76
2021/10/04 04:06:07;;;;;;;0.30;0.03;;;10.50;99.90;;;;;;5014239;28;20025;-76
2021/10/04 04:08:34;;;;;;;3.60;0.00;;;10.50;99.90;;;;;;5014029;28;20022;-78
2021/10/04 04:11:01;;;;;;;0.73;0.00;;;10.50;99.90;;;;;;5013693;28;20463;-79
2021/10/04 04:13:26;;;;;;;1.77;0.00;;;10.50;99.90;;;;;;5016270;28;20056;-79
2021/10/04 04:15:52;;;;;;;2.05;0.00;;;10.50;99.90;;;;;;5014563;28;20434;-80
2021/10/04 04:18:18;;;;;;;2.72;0.10;;;10.50;99.90;;;;;;5016097;28;20033;-79
2021/10/04 04:20:43;;;;;;;1.85;0.00;;;10.50;99.90;;;;;;5014471;28;20037;-80
2021/10/04 04:23:09;;;;;;;4.38;0.00;;;10.50;99.90;;;;;;5015957;28;20497;-79
2021/10/04 04:25:35;;;;;;;1.90;0.10;;;10.50;99.90;;;;;;5014153;28;20436;-80
2021/10/04 04:28:01;;;;;;;1.95;0.43;;;10.50;99.90;;;;;;5013646;28;20022;-77
2021/10/04 04:30:27;;;;;;;1.75;0.10;;;10.40;99.90;;;;;;5013607;28;20072;-77
2021/10/04 04:32:53;;;;;;;1.23;0.10;;;10.40;99.90;;;;;;5013659;28;20026;-77
2021/10/04 04:35:19;;;;;;;3.30;0.25;;;10.40;99.90;;;;;;5013585;28;20117;-77
2021/10/04 04:37:44;;;;;;;2.58;0.75;;;10.30;99.90;;;;;;5013296;28;20467;-77
2021/10/04 04:40:14;;;;;;;2.28;0.00;;;10.40;99.90;;;;;;5013591;28;20092;-78
2021/10/04 04:42:44;;;;;;;2.45;0.10;;;10.30;99.90;;;;;;5012266;28;20080;-77
2021/10/04 04:45:16;;;;;;;0.35;0.08;;;10.40;99.90;;;;;;5013383;28;20021;-78
2021/10/04 04:47:41;;;;;;;2.40;0.10;;;10.30;99.90;;;;;;5018432;28;20021;-78
2021/10/04 04:50:08;;;;;;;2.47;0.60;;;10.30;99.90;;;;;;5020068;28;20079;-78
2021/10/04 04:52:34;;;;;;;1.65;0.20;;;10.20;99.90;;;;;;5018829;28;20446;-77
2021/10/04 04:55:00;;;;;;;1.02;0.13;;;10.30;99.90;;;;;;5019734;28;20102;-77
2021/10/04 04:57:26;;;;;;;1.35;0.10;;;10.30;99.90;;;;;;5018313;28;20113;-77
2021/10/04 04:59:54;;;;;;;4.07;0.82;;;10.30;99.90;;;;;;5019963;28;20093;-77
2021/10/04 05:02:20;;;;;;;1.08;0.20;;;10.20;99.90;;;;;;5019914;28;20037;-77
2021/10/04 05:04:46;;;;;;;2.70;0.10;;;10.20;99.90;;;;;;5019922;28;20026;-77
2021/10/04 05:07:11;;;;;;;4.60;0.15;;;10.20;99.90;;;;;;5018307;28;20033;-78
2021/10/04 05:09:37;;;;;;;1.85;0.40;;;10.20;99.90;;;;;;5019279;28;20025;-77
2021/10/04 05:12:04;;;;;;;3.88;0.30;;;10.30;99.90;;;;;;5018507;28;20026;-76
2021/10/04 05:14:30;;;;;;;1.80;0.00;;;10.30;99.90;;;;;;5018122;28;20084;-78
2021/10/04 05:16:55;;;;;;;1.75;0.20;;;10.20;99.90;;;;;;5018719;28;20030;-77
2021/10/04 05:19:24;;;;;;;1.55;0.25;;;10.20;99.90;;;;;;5018366;28;20025;-77
2021/10/04 05:21:50;;;;;;;1.80;0.10;;;10.20;99.90;;;;;;5018597;28;20030;-77
2021/10/04 05:24:15;;;;;;;1.42;0.30;;;10.20;99.90;;;;;;5018482;28;20026;-77
2021/10/04 05:26:41;;;;;;;1.52;0.20;;;10.20;99.90;;;;;;5019911;28;20075;-76
2021/10/04 05:29:07;;;;;;;3.08;0.22;;;10.30;99.90;;;;;;5020790;28;20021;-78
2021/10/04 05:31:32;;;;;;;3.03;0.10;;;10.40;99.90;;;;;;5019860;28;20033;-74
2021/10/04 05:33:58;;;;;;;1.25;0.10;;;10.30;99.90;;;;;;5019571;28;20025;-75
2021/10/04 05:36:24;;;;;;;3.33;0.32;;;10.40;99.90;;;;;;5018302;28;20512;-74
2021/10/04 05:38:49;;;;;;;3.63;0.20;;;10.40;99.90;;;;;;5018278;28;20070;-75
2021/10/04 05:41:15;;;;;;;1.23;0.10;;;10.50;99.90;;;;;;5019511;28;20022;-75
2021/10/04 05:43:41;;;;;;;1.50;0.00;;;10.50;99.90;;;;;;5019406;28;20065;-76
2021/10/04 05:46:06;;;;;;;3.00;0.45;;;10.50;99.90;;;;;;5018184;28;20041;-75
2021/10/04 05:48:33;;;;;;;3.88;0.55;;;10.60;99.90;;;;;;5023195;28;20022;-74
2021/10/04 05:50:58;;;;;;;3.20;0.10;;;10.60;99.90;;;;;;5021672;28;20026;-74
2021/10/04 05:53:24;;;;;;;3.60;0.20;;;10.60;99.90;;;;;;5021496;28;20029;-74
2021/10/04 05:55:50;;;;;;;2.05;0.20;;;10.60;99.90;;;;;;5021983;28;20090;-74
2021/10/04 05:58:16;;;;;;;4.30;0.35;;;10.70;99.90;;;;;;5021122;28;20052;-75
2021/10/04 06:00:43;;;;;;;1.85;0.10;;;10.70;99.90;;;;;;5018685;28;20022;-74
2021/10/04 06:03:09;;;;;;;1.42;0.10;;;10.70;99.90;;;;;;5020185;28;20022;-75
2021/10/04 06:05:34;;;;;;;3.05;0.00;;;10.70;99.90;;;;;;5020076;28;20029;-74
2021/10/04 06:08:02;;;;;;;1.20;0.03;;;10.60;99.90;;;;;;5020246;28;20045;-73
2021/10/04 06:10:28;;;;;;;3.08;0.10;;;10.70;99.90;;;;;;5019120;28;20018;-75
2021/10/04 06:12:54;;;;;;;3.40;0.10;;;10.70;99.90;;;;;;5018682;28;20431;-74
2021/10/04 06:15:19;;;;;;;4.03;0.90;;;10.70;99.90;;;;;;5019465;28;20032;-74
2021/10/04 06:17:46;;;;;;;1.45;0.50;;;10.70;99.90;;;;;;5019773;28;20076;-75
2021/10/04 06:20:12;;;;;;;1.00;0.00;;;10.70;99.90;;;;;;5018494;28;20132;-75
2021/10/04 06:22:39;;;;;;;3.40;0.68;;;10.70;99.90;;;;;;5019956;28;20033;-74
2021/10/04 06:25:07;;;;;;;0.98;0.00;;;10.80;99.90;;;;;;5014641;28;20026;-74
2021/10/04 06:27:33;;;;;;;1.85;0.57;;;10.80;99.90;;;;;;5019619;28;20026;-74
2021/10/04 06:29:59;;;;;;;0.90;0.00;;;10.80;99.90;;;;;;5018080;28;20049;-76
2021/10/04 06:32:24;;;;;;;2.47;0.00;;;10.80;99.90;;;;;;5020102;28;20029;-76
2021/10/04 06:34:50;;;;;;;4.28;0.00;;;10.80;99.90;;;;;;5018031;28;20033;-75
2021/10/04 06:37:16;;;;;;;4.43;0.32;;;10.70;99.90;;;;;;5019918;28;20026;-76
2021/10/04 06:39:41;;;;;;;0.52;0.10;;;10.70;99.90;;;;;;5020106;28;20117;-75
2021/10/04 06:42:08;;;;;;;0.98;0.32;;;10.80;99.90;;;;;;5018133;28;20021;-73
2021/10/04 06:44:33;;;;;;;0.30;0.10;;;10.80;99.90;;;;;;5019394;28;20014;-75
2021/10/04 06:47:01;;;;;;;3.28;0.20;;;10.80;99.90;;;;;;5019628;28;20391;-73
2021/10/04 06:49:26;;;;;;;4.55;0.08;;;10.80;99.90;;;;;;5019623;28;20045;-76
2021/10/04 06:51:52;;;;;;;1.83;0.08;;;10.80;99.90;;;;;;5020208;28;20486;-74
2021/10/04 06:54:17;;;;;;;2.28;0.05;;;10.80;99.90;;;;;;5017817;28;20060;-74
2021/10/04 06:56:43;;;;;;;2.42;0.28;;;10.70;99.90;;;;;;5019187;28;20030;-75
2021/10/04 06:59:08;;;;;;;1.92;0.20;;;10.80;99.90;;;;;;5018205;28;20033;-76
2021/10/04 07:01:35;;;;;;;1.17;0.15;;;10.80;99.90;;;;;;5019368;28;20026;-75
2021/10/04 07:04:04;;;;;;;3.70;0.40;;;10.80;99.90;;;;;;5019149;28;20049;-75
2021/10/04 07:06:30;;;;;;;1.35;0.00;;;10.80;99.90;;;;;;5016856;28;20014;-74
2021/10/04 07:08:56;;;;;;;2.83;0.00;;;10.70;99.90;;;;;;5013931;28;20026;-73
2021/10/04 07:11:21;;;;;;;14.73;0.52;;;10.80;99.90;;;;;;5013673;28;20026;-75
2021/10/04 07:13:48;;;;;;;4.88;0.00;;;10.80;99.90;;;;;;5015314;28;20467;-75
2021/10/04 07:16:15;;;;;;;0.15;0.00;;;11.00;99.90;;;;;;5013731;28;20071;-75
2021/10/04 07:18:41;;;;;;;1.65;0.00;;;11.10;99.90;;;;;;5014775;28;20029;-75
2021/10/04 07:21:08;;;;;;;1.75;0.00;;;11.20;99.90;;;;;;5014904;28;20030;-73
2021/10/04 07:23:34;;;;;;;3.33;0.00;;;11.30;99.90;;;;;;5013464;28;20112;-73
2021/10/04 07:25:59;;;;;;;3.40;0.00;;;11.50;99.90;;;;;;5015190;28;20110;-73
2021/10/04 07:28:25;;;;;;;3.30;0.05;;;11.60;99.90;;;;;;5013362;28;20044;-74
2021/10/04 07:30:51;;;;;;;4.05;0.00;;;11.70;99.90;;;;;;5013444;28;20028;-73
2021/10/04 07:33:17;;;;;;;0.90;0.00;;;11.80;99.90;;;;;;5014551;28;20120;-74
2021/10/04 07:35:43;;;;;;;3.80;0.00;;;11.90;99.90;;;;;;5013378;28;20060;-74
2021/10/04 07:38:08;;;;;;;2.03;0.00;;;11.90;99.90;;;;;;5014933;28;20459;-73
2021/10/04 07:40:34;;;;;;;1.45;0.10;;;12.10;99.90;;;;;;5014512;28;20053;-73
2021/10/04 07:42:59;;;;;;;1.80;0.05;;;12.10;99.90;;;;;;5014338;28;20025;-73
2021/10/04 07:45:25;;;;;;;3.90;0.10;;;12.20;99.90;;;;;;5014417;28;20029;-74
2021/10/04 07:47:51;;;;;;;5.30;0.20;;;12.30;99.90;;;;;;5014460;28;20030;-75
2021/10/04 07:50:17;;;;;;;2.17;0.57;;;12.40;99.90;;;;;;5014210;28;20020;-75
2021/10/04 07:52:44;;;;;;;2.13;0.13;;;12.40;99.90;;;;;;5014924;28;20076;-75
2021/10/04 07:55:11;;;;;;;8.63;0.00;;;12.50;99.90;;;;;;5014059;28;20057;-75
2021/10/04 07:57:37;;;;;;;2.88;0.15;;;12.60;99.90;;;;;;5012938;28;20080;-74
2021/10/04 08:00:05;;;;;;;3.33;0.10;;;12.70;99.90;;;;;;5014435;28;20030;-74
2021/10/04 08:02:33;;;;;;;3.13;0.10;;;12.70;99.90;;;;;;5012692;28;20040;-74
2021/10/04 08:04:58;;;;;;;4.38;0.10;;;12.90;99.90;;;;;;5014032;28;20049;-74
2021/10/04 08:07:24;;;;;;;0.40;0.00;;;13.00;99.90;;;;;;5014061;28;20018;-74
2021/10/04 08:09:49;;;;;;;3.00;0.20;;;13.00;99.90;;;;;;5014001;28;20113;-74
2021/10/04 08:12:15;;;;;;;4.03;0.10;;;13.10;99.90;;;;;;5014067;28;20030;-74
2021/10/04 08:14:41;;;;;;;2.85;0.32;;;13.20;99.90;;;;;;5014253;28;20038;-75
2021/10/04 08:17:06;;;;;;;1.75;0.10;;;13.20;99.90;;;;;;5013927;28;20502;-76
2021/10/04 08:19:32;;;;;;;1.75;0.00;;;13.30;99.90;;;;;;5013976;28;20018;-76
2021/10/04 08:21:57;;;;;;;1.10;0.13;;;13.40;99.90;;;;;;5013450;28;20038;-75
2021/10/04 08:24:23;;;;;;;0.30;0.00;;;13.50;99.90;;;;;;5013804;28;20049;-75
2021/10/04 08:26:49;;;;;;;2.95;0.00;;;13.50;99.90;;;;;;5014054;28;20014;-76
2021/10/04 08:29:15;;;;;;;0.85;0.00;;;13.60;99.90;;;;;;5013633;28;20025;-76
2021/10/04 08:31:41;;;;;;;2.65;0.20;;;13.70;99.90;;;;;;5012430;28;20202;-76
2021/10/04 08:34:07;;;;;;;1.50;0.00;;;13.80;99.90;;;;;;5013669;28;20109;-75
2021/10/04 08:36:34;;;;;;;4.68;0.00;;;13.80;99.90;;;;;;5014229;28;20033;-75
2021/10/04 08:39:04;;;;;;;1.65;0.00;;;13.90;99.90;;;;;;5013582;28;20049;-75
2021/10/04 08:41:31;;;;;;;1.95;0.00;;;13.90;99.90;;;;;;5013822;28;20080;-75
2021/10/04 08:44:00;;;;;;;0.20;0.00;;;14.00;99.90;;;;;;5012407;28;20414;-75
2021/10/04 08:46:26;;;;;;;1.83;0.10;;;14.00;99.90;;;;;;5012282;28;20387;-75
2021/10/04 08:48:51;;;;;;;2.85;0.00;;;14.20;99.90;;;;;;5012206;28;20068;-75
2021/10/04 08:51:17;;;;;;;1.75;0.20;;;14.30;99.90;;;;;;5013483;28;20018;-75
2021/10/04 08:53:44;;;;;;;3.10;0.00;;;14.40;99.90;;;;;;5012189;28;20546;-75
2021/10/04 08:56:10;;;;;;;1.65;0.10;;;14.40;99.90;;;;;;5013526;28;20049;-75
2021/10/04 08:58:36;;;;;;;2.30;0.10;;;14.50;99.90;;;;;;5013288;28;20072;-74
2021/10/04 09:01:05;;;;;;;0.10;0.00;;;14.60;99.90;;;;;;5013618;28;20485;-75
2021/10/04 09:03:55;;;;;;;1.98;0.00;;;14.60;99.90;;;;;;5013699;28;20518;-75
2021/10/04 09:06:33;;;;;;;1.90;0.55;;;14.70;99.90;;;;;;5013319;28;20017;-75
2021/10/04 09:09:04;;;;;;;3.30;0.00;;;14.60;99.90;;;;;;5013523;28;20045;-75
2021/10/04 09:11:39;;;;;;;1.05;0.00;;;14.70;99.90;;;;;;5012229;28;20383;-75
2021/10/04 09:14:15;;;;;;;3.72;0.00;;;14.80;99.90;;;;;;5012239;28;20061;-75
2021/10/04 09:16:49;;;;;;;0.70;0.20;;;14.80;99.90;;;;;;5013352;28;20029;-75
2021/10/04 09:19:37;;;;;;;2.88;0.28;;;14.80;99.90;;;;;;5012090;28;20491;-75
2021/10/04 09:22:08;;;;;;;3.40;0.10;;;14.90;99.90;;;;;;5013394;28;20481;-74
2021/10/04 09:24:39;;;;;;;1.80;0.35;;;15.00;99.90;;;;;;5012143;28;20030;-74
2021/10/04 09:27:41;;;;;;;0.22;0.00;;;15.10;99.90;;;;;;5013670;28;20026;-74
2021/10/04 09:30:11;;;;;;;0.80;0.10;;;15.20;99.90;;;;;;4992421;22;20110;-74
2021/10/04 09:32:47;;;;;;;5.43;0.75;;;15.30;99.90;;;;;;5031691;28;20394;-74
2021/10/04 09:35:22;;;;;;;0.98;0.00;;;15.30;99.90;;;;;;5036781;28;20029;-75
2021/10/04 09:37:54;;;;;;;9.43;0.10;;;15.40;99.90;;;;;;5036885;28;20040;-74
2021/10/04 09:40:37;;;;;;;5.45;0.40;;;15.40;99.90;;;;;;5035191;28;20167;-74
2021/10/04 09:43:23;;;;;;;4.80;0.20;;;15.50;99.90;;;;;;5036375;28;20081;-75
2021/10/04 09:46:01;;;;;;;1.25;0.22;;;15.50;99.90;;;;;;5036736;28;20427;-74
2021/10/04 09:48:26;;;;;;;2.97;0.17;;;15.60;99.90;;;;;;5037109;28;20044;-74
2021/10/04 09:50:55;;;;;;;2.75;0.28;;;15.60;99.90;;;;;;5035352;28;20022;-74
2021/10/04 09:53:21;;;;;;;0.85;0.00;;;15.70;99.90;;;;;;5036636;28;20048;-74
2021/10/04 09:55:48;;;;;;;3.92;0.00;;;15.70;99.90;;;;;;5036078;28;20112;-74
2021/10/04 09:58:19;;;;;;;2.30;0.00;;;15.80;99.90;;;;;;5034816;28;20033;-74
2021/10/04 10:00:55;;;;;;;1.40;0.00;;;15.90;99.90;;;;;;5036343;28;20032;-74
2021/10/04 10:03:31;;;;;;;1.27;0.00;;;15.90;99.90;;;;;;5035989;28;20029;-74
2021/10/04 10:05:58;;;;;;;2.97;0.17;;;16.10;99.90;;;;;;5036326;28;20497;-74
2021/10/04 10:08:27;;;;;;;2.75;0.00;;;16.20;99.90;;;;;;5035924;28;20076;-74
2021/10/04 10:10:56;;;;;;;3.15;0.00;;;16.10;99.90;;;;;;5035935;28;20109;-74
2021/10/04 10:13:24;;;;;;;1.95;0.00;;;16.10;99.90;;;;;;5034539;28;20057;-74
2021/10/04 10:16:04;;;;;;;4.78;0.22;;;16.10;99.90;;;;;;5035980;28;20037;-74
2021/10/04 10:18:46;;;;;;;2.13;0.17;;;16.10;99.90;;;;;;5036551;28;20037;-74
2021/10/04 10:21:23;;;;;;;3.50;0.28;;;16.10;99.90;;;;;;5036251;28;20033;-74
2021/10/04 10:23:50;;;;;;;2.90;0.10;;;16.20;99.90;;;;;;5035408;28;20021;-74
2021/10/04 10:26:27;;;;;;;2.55;0.00;;;16.30;99.90;;;;;;5035714;28;20025;-74
2021/10/04 10:29:21;;;;;;;2.45;0.00;;;16.40;99.90;;;;;;5035629;28;20094;-74
2021/10/04 10:32:08;;;;;;;0.32;0.00;;;16.40;99.90;;;;;;5035591;28;20029;-74
2021/10/04 10:34:33;;;;;;;1.02;0.20;;;16.40;99.90;;;;;;5034390;28;20032;-75
2021/10/04 10:37:09;;;;;;;3.65;0.00;;;16.50;99.90;;;;;;5036053;28;20410;-75
2021/10/04 10:39:42;;;;;;;2.72;0.25;;;16.60;99.90;;;;;;5035410;28;20049;-74
2021/10/04 10:42:19;;;;;;;1.70;0.00;;;16.60;99.90;;;;;;5034064;28;20075;-74
2021/10/04 10:44:56;;;;;;;0.75;0.00;;;16.60;99.90;;;;;;5035240;28;20029;-74
2021/10/04 10:47:37;;;;;;;0.50;0.00;;;16.70;99.90;;;;;;5035775;28;20030;-74
2021/10/04 10:50:13;;;;;;;4.47;0.00;;;16.80;99.90;;;;;;5035628;28;20048;-74
2021/10/04 10:52:39;;;;;;;3.63;0.20;;;16.80;99.90;;;;;;5036277;28;20067;-74
2021/10/04 10:55:20;;;;;;;2.95;0.30;;;16.90;99.90;;;;;;5035241;28;20021;-74
2021/10/04 10:58:02;;;;;;;5.63;0.03;;;17.10;99.90;;;;;;5035154;28;20036;-75
2021/10/04 11:00:51;;;;;;;6.65;0.57;;;17.10;99.90;;;;;;5034837;28;20108;-75
2021/10/04 11:03:21;;;;;;;6.25;0.00;;;17.10;99.90;;;;;;5035146;28;20433;-76
2021/10/04 11:06:03;;;;;;;3.13;0.00;;;17.00;99.90;;;;;;5033605;28;20018;-76
2021/10/04 11:08:28;;;;;;;3.47;0.00;;;17.10;99.90;;;;;;5033641;28;20112;-75
2021/10/04 11:10:57;;;;;;;2.42;0.40;;;17.30;99.90;;;;;;5033524;28;20144;-75
2021/10/04 11:13:34;;;;;;;4.50;0.90;;;17.40;99.90;;;;;;5034762;28;20423;-75
2021/10/04 11:16:04;;;;;;;1.42;0.30;;;17.50;99.90;;;;;;5034705;28;20117;-75
2021/10/04 11:18:38;;;;;;;7.60;0.05;;;17.60;99.90;;;;;;5033287;28;20025;-75
2021/10/04 11:21:08;;;;;;;3.83;0.60;;;17.70;99.90;;;;;;5034582;28;20030;-74
2021/10/04 11:23:38;;;;;;;4.30;0.00;;;17.70;99.90;;;;;;5034452;28;20105;-73
2021/10/04 11:26:03;;;;;;;5.50;0.20;;;17.70;99.90;;;;;;5034538;28;20022;-75
2021/10/04 11:28:32;;;;;;;6.28;0.40;;;17.60;99.90;;;;;;5034646;28;20432;-75
2021/10/04 11:31:04;;;;;;;5.30;0.10;;;17.70;99.90;;;;;;5034436;28;20036;-75
2021/10/04 11:33:36;;;;;;;1.85;0.00;;;17.80;99.90;;;;;;5033174;28;20036;-75
2021/10/04 11:36:06;;;;;;;1.23;0.00;;;17.80;99.90;;;;;;5033064;28;20048;-75
2021/10/04 11:38:38;;;;;;;2.85;0.00;;;17.90;99.90;;;;;;5034274;28;20036;-75
2021/10/04 11:41:07;;;;;;;3.55;0.00;;;17.80;99.90;;;;;;5033018;28;20510;-74
2021/10/04 11:43:36;;;;;;;4.55;0.00;;;17.90;99.90;;;;;;5034160;28;20033;-74
2021/10/04 11:46:17;;;;;;;2.70;0.00;;;17.70;99.90;;;;;;5033136;28;20030;-74
2021/10/04 11:48:43;;;;;;;4.32;0.45;;;17.80;99.90;;;;;;5034559;28;20026;-74
2021/10/04 11:51:12;;;;;;;1.95;0.00;;;17.80;99.90;;;;;;5033904;28;20024;-75
2021/10/04 11:53:42;;;;;;;;;;;18.10;99.90;;;;;;5033113;28;20099;-75
2021/10/04 11:56:09;;;;;;;3.03;0.20;;;18.30;99.90;;;;;;5033487;28;19940;-75
2021/10/04 11:58:49;;;;;;;8.23;0.30;;;18.50;99.90;;;;;;5034174;28;20021;-75
2021/10/04 12:01:28;;;;;;;2.50;0.10;;;18.40;99.80;;;;;;5034560;28;20021;-75
2021/10/04 12:04:11;;;;;;;2.80;0.28;;;18.50;99.90;;;;;;5034174;28;20497;-74
2021/10/04 12:06:39;;;;;;;3.97;0.00;;;18.30;99.30;;;;;;5034077;28;20025;-74
2021/10/04 12:09:07;;;;;;;1.08;0.00;;;18.50;99.60;;;;;;5032641;28;20445;-74
2021/10/04 12:11:33;;;;;;;3.17;0.00;;;18.70;99.50;;;;;;5033765;28;20470;-74
2021/10/04 12:14:00;;;;;;;3.78;0.00;;;18.80;98.50;;;;;;5034077;28;20474;-74
2021/10/04 12:16:32;;;;;;;5.22;0.32;;;18.90;99.10;;;;;;5032305;28;20025;-74
2021/10/04 12:19:01;;;;;;;4.72;0.00;;;18.80;97.50;;;;;;5032263;28;20088;-75
2021/10/04 12:21:38;;;;;;;;;;;18.80;98.30;;;;;;5032725;28;20116;-74
2021/10/04 12:24:15;;;;;;;0.47;0.00;;;18.70;98.30;;;;;;5033592;28;19917;-74
2021/10/04 12:27:03;;;;;;;4.75;0.32;;;18.50;97.70;;;;;;5033677;28;20021;-74
2021/10/04 12:29:34;;;;;;;6.20;0.10;;;18.40;98.60;;;;;;5032129;28;20032;-74
2021/10/04 12:32:21;;;;;;;1.85;0.00;;;18.30;96.60;;;;;;5033525;28;20033;-73
2021/10/04 12:35:10;;;;;;;1.23;0.00;;;18.40;96.50;;;;;;5032147;28;20437;-73
2021/10/04 12:37:39;;;;;;;3.05;0.52;;;18.50;97.40;;;;;;5033705;28;20102;-74
2021/10/04 12:40:22;;;;;;;;;;;18.60;96.50;;;;;;5033775;28;20105;-74
2021/10/04 12:42:49;;;;;;;2.13;0.32;;;18.90;97.40;;;;;;5031881;28;19908;-74
2021/10/04 12:45:14;;;;;;;4.30;0.00;;;19.20;95.30;;;;;;5033511;28;20018;-74
2021/10/04 12:47:59;;;;;;;1.35;0.00;;;19.00;93.70;;;;;;5032070;28;20025;-74
2021/10/04 12:50:28;;;;;;;0.55;0.00;;;18.80;93.40;;;;;;5033312;28;20116;-74
2021/10/04 12:53:20;;;;;;;2.42;0.00;;;19.00;93.70;;;;;;5033209;28;20026;-74